METAR AND TAF INFORMATION
METAR FOR KAVX
ADDS - METARS form results

(1030 UTC 05 March 2021)
Data provider http://aviationweather.gov/metar/data/
 
METAR text: KAVX 050951Z AUTO 36005KT 10SM CLR 14/02 A3020 RMK AO2 SLP221 T01440022
Conditions at: KAVX (AVALON , CA, US) observed 0951 UTC 05 March 2021
Temperature: 14.4°C (58°F)
Dewpoint: 2.2°C (36°F) [RH = 44%]
Pressure (altimeter): 30.20 inches Hg (1022.8 mb)
[Sea-level pressure: 1022.1 mb]
Winds: from the N (360 degrees) at 6 MPH (5 knots; 2.6 m/s)
Visibility: 10 or more miles (16+ km)
Ceiling: at least 12,000 feet AGL
Clouds: sky clear below 12,000 feet AGL
Weather: automated observation with no human augmentation;
there may or may not be significant weather present at this time

 AIRPORT MAP

 RUNWAY INFORMATION
Runway 04 Runway length 3000 ft Runway width 60 ft
Runway elevation 1602 ft Runway displaced threshold 120 ft Runway heading 54
Runway 22 Runway length 3000 ft Runway width 60 ft
Runway elevation 1602 ft Runway displaced threshold 149 ft Runway heading 234

 AIRPORT FREQUENCIES
Type A/D Name SOCAL APP/ Frequency 127.4 MHZ
Type UNIC Name CTAF/UNICO Frequency 122.7 MHZ

 AIRPORT NEAR NAVIGATION AIDS

-